sensor_id;sensor_type;location;lat;lon;timestamp;pressure;altitude;pressure_sealevel;temperature;humidity
54329;BME280;40710;51.120;13.136;2023-02-03T00:01:10;100080.97;;;7.14;64.18
54329;BME280;40710;51.120;13.136;2023-02-03T00:03:34;100086.63;;;6.30;65.99
54329;BME280;40710;51.120;13.136;2023-02-03T00:06:01;100060.06;;;7.14;63.91
54329;BME280;40710;51.120;13.136;2023-02-03T00:08:26;100077.16;;;6.94;64.80
54329;BME280;40710;51.120;13.136;2023-02-03T00:10:52;100083.56;;;6.12;66.65
54329;BME280;40710;51.120;13.136;2023-02-03T00:13:17;100076.63;;;6.80;66.01
54329;BME280;40710;51.120;13.136;2023-02-03T00:15:42;100062.22;;;6.99;63.98
54329;BME280;40710;51.120;13.136;2023-02-03T00:18:06;100060.53;;;7.28;65.12
54329;BME280;40710;51.120;13.136;2023-02-03T00:20:31;100068.22;;;6.70;66.13
54329;BME280;40710;51.120;13.136;2023-02-03T00:23:03;100051.63;;;7.65;62.23
54329;BME280;40710;51.120;13.136;2023-02-03T00:25:28;100057.69;;;6.39;64.64
54329;BME280;40710;51.120;13.136;2023-02-03T00:27:52;100054.75;;;6.51;65.82
54329;BME280;40710;51.120;13.136;2023-02-03T00:30:17;100048.63;;;7.18;64.16
54329;BME280;40710;51.120;13.136;2023-02-03T00:32:41;100049.63;;;6.47;65.46
54329;BME280;40710;51.120;13.136;2023-02-03T00:35:06;100040.25;;;6.74;65.88
54329;BME280;40710;51.120;13.136;2023-02-03T00:37:31;100039.78;;;6.23;65.52
54329;BME280;40710;51.120;13.136;2023-02-03T00:39:55;100018.38;;;7.39;64.38
54329;BME280;40710;51.120;13.136;2023-02-03T00:42:20;100020.59;;;7.53;63.35
54329;BME280;40710;51.120;13.136;2023-02-03T00:44:44;100010.38;;;7.45;62.97
54329;BME280;40710;51.120;13.136;2023-02-03T00:47:09;99993.72;;;7.76;61.88
54329;BME280;40710;51.120;13.136;2023-02-03T00:49:33;99998.06;;;7.49;62.38
54329;BME280;40710;51.120;13.136;2023-02-03T00:51:58;100017.44;;;6.48;64.51
54329;BME280;40710;51.120;13.136;2023-02-03T00:54:22;100014.19;;;6.71;64.49
54329;BME280;40710;51.120;13.136;2023-02-03T00:56:47;99998.66;;;7.57;62.32
54329;BME280;40710;51.120;13.136;2023-02-03T00:59:11;100012.84;;;6.21;65.69
54329;BME280;40710;51.120;13.136;2023-02-03T01:01:36;99991.41;;;6.43;64.47
54329;BME280;40710;51.120;13.136;2023-02-03T01:04:02;99987.31;;;6.98;63.25
54329;BME280;40710;51.120;13.136;2023-02-03T01:06:27;99965.03;;;6.85;63.34
54329;BME280;40710;51.120;13.136;2023-02-03T01:08:51;99949.06;;;7.82;61.63
54329;BME280;40710;51.120;13.136;2023-02-03T01:11:20;99940.84;;;7.66;61.70
54329;BME280;40710;51.120;13.136;2023-02-03T01:13:44;99935.00;;;7.58;62.72
54329;BME280;40710;51.120;13.136;2023-02-03T01:16:11;99924.38;;;7.34;62.68
54329;BME280;40710;51.120;13.136;2023-02-03T01:18:36;99927.19;;;7.28;63.19
54329;BME280;40710;51.120;13.136;2023-02-03T01:21:06;99923.59;;;6.73;64.27
54329;BME280;40710;51.120;13.136;2023-02-03T01:23:31;99898.78;;;7.72;61.88
54329;BME280;40710;51.120;13.136;2023-02-03T01:25:56;99902.66;;;7.04;64.12
54329;BME280;40710;51.120;13.136;2023-02-03T01:28:20;99898.91;;;6.53;64.43
54329;BME280;40710;51.120;13.136;2023-02-03T01:30:45;99885.19;;;6.76;64.29
54329;BME280;40710;51.120;13.136;2023-02-03T01:33:09;99885.69;;;6.89;64.02
54329;BME280;40710;51.120;13.136;2023-02-03T01:35:34;99878.38;;;7.00;64.58
54329;BME280;40710;51.120;13.136;2023-02-03T01:37:59;99895.81;;;6.06;67.37
54329;BME280;40710;51.120;13.136;2023-02-03T01:40:24;99877.31;;;7.06;63.88
54329;BME280;40710;51.120;13.136;2023-02-03T01:42:48;99883.66;;;6.69;65.24
54329;BME280;40710;51.120;13.136;2023-02-03T01:45:13;99873.50;;;7.18;65.15
54329;BME280;40710;51.120;13.136;2023-02-03T01:47:54;99891.25;;;6.47;66.74
54329;BME280;40710;51.120;13.136;2023-02-03T01:50:35;99876.66;;;6.07;66.60
54329;BME280;40710;51.120;13.136;2023-02-03T01:53:05;99863.50;;;6.73;66.61
54329;BME280;40710;51.120;13.136;2023-02-03T01:55:38;99858.50;;;6.67;66.62
54329;BME280;40710;51.120;13.136;2023-02-03T01:58:20;99854.22;;;6.92;64.82
54329;BME280;40710;51.120;13.136;2023-02-03T02:00:48;99861.00;;;6.70;66.90
54329;BME280;40710;51.120;13.136;2023-02-03T02:03:14;99840.44;;;7.95;63.33
54329;BME280;40710;51.120;13.136;2023-02-03T02:05:46;99831.16;;;8.36;61.35
54329;BME280;40710;51.120;13.136;2023-02-03T02:08:14;99822.66;;;8.05;61.74
54329;BME280;40710;51.120;13.136;2023-02-03T02:10:39;99819.94;;;8.08;63.17
54329;BME280;40710;51.120;13.136;2023-02-03T02:13:05;99836.84;;;6.91;65.44
54329;BME280;40710;51.120;13.136;2023-02-03T02:15:42;99826.72;;;7.89;63.73
54329;BME280;40710;51.120;13.136;2023-02-03T02:18:22;99814.06;;;8.25;61.53
54329;BME280;40710;51.120;13.136;2023-02-03T02:24:11;99821.53;;;8.12;64.23
54329;BME280;40710;51.120;13.136;2023-02-03T02:26:53;99811.13;;;7.86;64.44
54329;BME280;40710;51.120;13.136;2023-02-03T02:30:05;99797.72;;;7.95;63.91
54329;BME280;40710;51.120;13.136;2023-02-03T02:38:11;99798.00;;;7.87;65.26
54329;BME280;40710;51.120;13.136;2023-02-03T02:40:48;99766.44;;;8.39;65.69
54329;BME280;40710;51.120;13.136;2023-02-03T02:43:18;99776.91;;;8.39;64.96
54329;BME280;40710;51.120;13.136;2023-02-03T02:45:47;99752.97;;;8.50;63.48
54329;BME280;40710;51.120;13.136;2023-02-03T02:48:22;99773.34;;;6.89;69.12
54329;BME280;40710;51.120;13.136;2023-02-03T02:50:54;99765.56;;;8.86;65.58
54329;BME280;40710;51.120;13.136;2023-02-03T02:53:24;99758.38;;;8.45;65.48
54329;BME280;40710;51.120;13.136;2023-02-03T02:55:51;99750.66;;;8.42;65.67
54329;BME280;40710;51.120;13.136;2023-02-03T02:58:19;99743.22;;;8.06;67.85
54329;BME280;40710;51.120;13.136;2023-02-03T03:00:44;99753.44;;;7.38;70.55
54329;BME280;40710;51.120;13.136;2023-02-03T03:03:20;99735.78;;;8.41;68.13
54329;BME280;40710;51.120;13.136;2023-02-03T03:06:00;99735.06;;;8.61;65.82
54329;BME280;40710;51.120;13.136;2023-02-03T03:08:40;99731.88;;;8.06;66.61
54329;BME280;40710;51.120;13.136;2023-02-03T03:11:06;99739.91;;;7.52;69.17
54329;BME280;40710;51.120;13.136;2023-02-03T03:13:35;99720.94;;;8.65;66.95
54329;BME280;40710;51.120;13.136;2023-02-03T03:16:04;99726.25;;;8.17;68.52
54329;BME280;40710;51.120;13.136;2023-02-03T03:18:41;99737.94;;;7.59;69.67
54329;BME280;40710;51.120;13.136;2023-02-03T03:21:07;99726.47;;;9.02;66.59
54329;BME280;40710;51.120;13.136;2023-02-03T03:23:37;99739.28;;;7.94;68.34
54329;BME280;40710;51.120;13.136;2023-02-03T03:26:18;99747.72;;;8.50;69.14
54329;BME280;40710;51.120;13.136;2023-02-03T03:28:50;99723.50;;;9.32;66.16
54329;BME280;40710;51.120;13.136;2023-02-03T03:31:18;99722.34;;;8.74;67.51
54329;BME280;40710;51.120;13.136;2023-02-03T03:33:44;99726.53;;;8.78;68.94
54329;BME280;40710;51.120;13.136;2023-02-03T03:36:25;99719.09;;;8.89;67.94
54329;BME280;40710;51.120;13.136;2023-02-03T03:39:08;99719.66;;;8.76;68.49
54329;BME280;40710;51.120;13.136;2023-02-03T03:41:53;99721.16;;;9.03;67.72
54329;BME280;40710;51.120;13.136;2023-02-03T03:44:27;99726.91;;;8.69;70.07
54329;BME280;40710;51.120;13.136;2023-02-03T03:49:34;99705.56;;;8.78;67.37
54329;BME280;40710;51.120;13.136;2023-02-03T03:52:05;99699.47;;;8.78;68.30
54329;BME280;40710;51.120;13.136;2023-02-03T03:54:32;99707.00;;;8.65;70.67
54329;BME280;40710;51.120;13.136;2023-02-03T03:57:13;99681.00;;;9.64;66.60
54329;BME280;40710;51.120;13.136;2023-02-03T03:59:45;99690.78;;;8.31;68.88
54329;BME280;40710;51.120;13.136;2023-02-03T04:02:13;99677.56;;;8.58;68.63
54329;BME280;40710;51.120;13.136;2023-02-03T04:04:39;99671.94;;;8.67;69.37
54329;BME280;40710;51.120;13.136;2023-02-03T04:07:05;99642.41;;;9.06;67.77
54329;BME280;40710;51.120;13.136;2023-02-03T04:09:29;99647.50;;;8.45;69.42
54329;BME280;40710;51.120;13.136;2023-02-03T04:11:54;99635.50;;;8.39;69.21
54329;BME280;40710;51.120;13.136;2023-02-03T04:14:24;99649.97;;;8.72;68.80
54329;BME280;40710;51.120;13.136;2023-02-03T04:16:49;99663.47;;;8.83;68.34
54329;BME280;40710;51.120;13.136;2023-02-03T04:19:13;99645.97;;;9.04;68.53
54329;BME280;40710;51.120;13.136;2023-02-03T04:21:38;99650.84;;;8.93;67.81
54329;BME280;40710;51.120;13.136;2023-02-03T04:24:02;99656.59;;;8.80;68.76
54329;BME280;40710;51.120;13.136;2023-02-03T04:26:27;99663.41;;;8.40;69.08
54329;BME280;40710;51.120;13.136;2023-02-03T04:28:52;99645.44;;;8.75;68.06
54329;BME280;40710;51.120;13.136;2023-02-03T04:31:16;99661.06;;;8.99;68.95
54329;BME280;40710;51.120;13.136;2023-02-03T04:33:41;99635.41;;;11.30;61.07
54329;BME280;40710;51.120;13.136;2023-02-03T04:36:05;99643.97;;;10.28;63.05
54329;BME280;40710;51.120;13.136;2023-02-03T04:38:30;99652.75;;;10.27;62.26
54329;BME280;40710;51.120;13.136;2023-02-03T04:40:56;99656.03;;;9.94;64.06
54329;BME280;40710;51.120;13.136;2023-02-03T04:43:20;99629.22;;;10.62;62.45
54329;BME280;40710;51.120;13.136;2023-02-03T04:45:45;99639.16;;;10.37;62.72
54329;BME280;40710;51.120;13.136;2023-02-03T04:48:10;99639.69;;;10.63;63.15
54329;BME280;40710;51.120;13.136;2023-02-03T04:50:35;99655.53;;;9.67;64.19
54329;BME280;40710;51.120;13.136;2023-02-03T04:52:59;99658.31;;;10.20;64.56
54329;BME280;40710;51.120;13.136;2023-02-03T04:55:24;99647.44;;;9.90;64.27
54329;BME280;40710;51.120;13.136;2023-02-03T04:57:54;99655.28;;;9.52;66.73
54329;BME280;40710;51.120;13.136;2023-02-03T05:00:19;99644.59;;;9.76;65.98
54329;BME280;40710;51.120;13.136;2023-02-03T05:02:43;99645.06;;;9.46;65.81
54329;BME280;40710;51.120;13.136;2023-02-03T05:05:08;99645.91;;;9.86;64.46
54329;BME280;40710;51.120;13.136;2023-02-03T05:07:32;99630.38;;;9.21;65.92
54329;BME280;40710;51.120;13.136;2023-02-03T05:09:57;99627.16;;;9.56;64.75
54329;BME280;40710;51.120;13.136;2023-02-03T05:12:21;99613.69;;;9.24;67.30
54329;BME280;40710;51.120;13.136;2023-02-03T05:14:46;99616.16;;;9.67;67.38
54329;BME280;40710;51.120;13.136;2023-02-03T05:17:10;99592.47;;;9.87;64.51
54329;BME280;40710;51.120;13.136;2023-02-03T05:19:35;99598.66;;;9.86;65.89
54329;BME280;40710;51.120;13.136;2023-02-03T05:21:59;99593.72;;;10.35;65.09
54329;BME280;40710;51.120;13.136;2023-02-03T05:24:24;99607.44;;;9.06;67.62
54329;BME280;40710;51.120;13.136;2023-02-03T05:26:48;99601.41;;;9.45;67.94
54329;BME280;40710;51.120;13.136;2023-02-03T05:29:13;99593.00;;;9.37;68.21
54329;BME280;40710;51.120;13.136;2023-02-03T05:31:37;99580.47;;;9.43;68.29
54329;BME280;40710;51.120;13.136;2023-02-03T05:34:02;99580.22;;;9.29;68.10
54329;BME280;40710;51.120;13.136;2023-02-03T05:36:27;99576.88;;;9.84;66.36
54329;BME280;40710;51.120;13.136;2023-02-03T05:38:51;99574.53;;;9.19;67.66
54329;BME280;40710;51.120;13.136;2023-02-03T05:41:16;99573.09;;;9.52;68.36
54329;BME280;40710;51.120;13.136;2023-02-03T05:43:59;99572.06;;;8.96;69.95
54329;BME280;40710;51.120;13.136;2023-02-03T05:46:23;99561.84;;;8.89;69.68
54329;BME280;40710;51.120;13.136;2023-02-03T05:48:48;99585.47;;;8.47;70.12
54329;BME280;40710;51.120;13.136;2023-02-03T05:51:12;99595.53;;;9.19;69.90
54329;BME280;40710;51.120;13.136;2023-02-03T05:53:37;99571.16;;;10.31;66.39
54329;BME280;40710;51.120;13.136;2023-02-03T05:56:02;99584.13;;;9.00;68.60
54329;BME280;40710;51.120;13.136;2023-02-03T05:58:26;99588.06;;;9.69;67.36
54329;BME280;40710;51.120;13.136;2023-02-03T06:00:51;99571.44;;;10.06;65.94
54329;BME280;40710;51.120;13.136;2023-02-03T06:03:15;99551.75;;;10.15;65.21
54329;BME280;40710;51.120;13.136;2023-02-03T06:05:40;99576.56;;;9.13;69.46
54329;BME280;40710;51.120;13.136;2023-02-03T06:08:04;99577.03;;;9.22;68.44
54329;BME280;40710;51.120;13.136;2023-02-03T06:10:29;99571.28;;;8.94;70.12
54329;BME280;40710;51.120;13.136;2023-02-03T06:12:53;99558.03;;;8.97;70.79
54329;BME280;40710;51.120;13.136;2023-02-03T06:15:18;99547.56;;;8.97;70.09
54329;BME280;40710;51.120;13.136;2023-02-03T06:17:44;99550.81;;;9.22;70.05
54329;BME280;40710;51.120;13.136;2023-02-03T06:20:10;99572.47;;;9.07;71.22
54329;BME280;40710;51.120;13.136;2023-02-03T06:22:34;99542.94;;;9.60;70.42
54329;BME280;40710;51.120;13.136;2023-02-03T06:24:59;99546.75;;;9.34;70.38
54329;BME280;40710;51.120;13.136;2023-02-03T06:27:24;99555.59;;;8.51;71.20
54329;BME280;40710;51.120;13.136;2023-02-03T06:29:49;99550.47;;;8.70;72.00
54329;BME280;40710;51.120;13.136;2023-02-03T06:32:14;99547.84;;;8.70;72.01
54329;BME280;40710;51.120;13.136;2023-02-03T06:34:38;99548.28;;;8.37;72.49
54329;BME280;40710;51.120;13.136;2023-02-03T06:37:03;99530.81;;;8.80;71.43
54329;BME280;40710;51.120;13.136;2023-02-03T06:39:27;99520.44;;;8.77;70.99
54329;BME280;40710;51.120;13.136;2023-02-03T06:41:52;99518.69;;;9.17;69.90
54329;BME280;40710;51.120;13.136;2023-02-03T06:44:19;99497.13;;;9.68;68.33
54329;BME280;40710;51.120;13.136;2023-02-03T06:46:43;99518.94;;;8.51;71.28
54329;BME280;40710;51.120;13.136;2023-02-03T06:49:08;99497.34;;;9.06;69.41
54329;BME280;40710;51.120;13.136;2023-02-03T06:51:33;99491.78;;;9.33;69.03
54329;BME280;40710;51.120;13.136;2023-02-03T06:53:57;99507.22;;;8.80;70.01
54329;BME280;40710;51.120;13.136;2023-02-03T06:56:22;99502.41;;;9.30;69.67
54329;BME280;40710;51.120;13.136;2023-02-03T06:58:46;99483.31;;;8.67;70.75
54329;BME280;40710;51.120;13.136;2023-02-03T07:01:11;99466.13;;;9.20;68.82
54329;BME280;40710;51.120;13.136;2023-02-03T07:03:36;99457.38;;;9.20;69.67
54329;BME280;40710;51.120;13.136;2023-02-03T07:06:00;99455.97;;;9.32;68.86
54329;BME280;40710;51.120;13.136;2023-02-03T07:08:25;99450.09;;;9.45;69.18
54329;BME280;40710;51.120;13.136;2023-02-03T07:10:53;99458.09;;;9.23;68.76
54329;BME280;40710;51.120;13.136;2023-02-03T07:13:18;99436.03;;;9.83;66.99
54329;BME280;40710;51.120;13.136;2023-02-03T07:15:42;99442.94;;;10.03;67.32
54329;BME280;40710;51.120;13.136;2023-02-03T07:18:07;99436.03;;;10.37;65.22
54329;BME280;40710;51.120;13.136;2023-02-03T07:20:31;99435.41;;;9.78;65.79
54329;BME280;40710;51.120;13.136;2023-02-03T07:22:56;99438.16;;;9.57;67.69
54329;BME280;40710;51.120;13.136;2023-02-03T07:25:22;99443.81;;;9.67;66.98
54329;BME280;40710;51.120;13.136;2023-02-03T07:27:47;99437.22;;;9.03;67.90
54329;BME280;40710;51.120;13.136;2023-02-03T07:30:12;99445.25;;;9.55;67.46
54329;BME280;40710;51.120;13.136;2023-02-03T07:32:36;99427.03;;;9.52;66.05
54329;BME280;40710;51.120;13.136;2023-02-03T07:35:01;99431.16;;;9.58;67.08
54329;BME280;40710;51.120;13.136;2023-02-03T07:37:26;99423.69;;;9.85;67.29
54329;BME280;40710;51.120;13.136;2023-02-03T07:39:50;99420.47;;;9.24;68.32
54329;BME280;40710;51.120;13.136;2023-02-03T07:42:15;99424.06;;;9.41;68.05
54329;BME280;40710;51.120;13.136;2023-02-03T07:44:39;99451.88;;;9.07;69.43
54329;BME280;40710;51.120;13.136;2023-02-03T07:47:04;99424.78;;;9.25;69.00
54329;BME280;40710;51.120;13.136;2023-02-03T07:49:28;99446.25;;;8.77;69.30
54329;BME280;40710;51.120;13.136;2023-02-03T07:51:53;99424.69;;;9.46;67.64
54329;BME280;40710;51.120;13.136;2023-02-03T07:54:17;99432.59;;;9.27;68.88
54329;BME280;40710;51.120;13.136;2023-02-03T07:56:42;99443.41;;;9.00;69.74
54329;BME280;40710;51.120;13.136;2023-02-03T07:59:06;99449.94;;;8.92;70.64
54329;BME280;40710;51.120;13.136;2023-02-03T08:01:31;99437.03;;;9.44;68.51
54329;BME280;40710;51.120;13.136;2023-02-03T08:03:57;99435.03;;;9.68;68.98
54329;BME280;40710;51.120;13.136;2023-02-03T08:06:21;99463.00;;;9.31;68.75
54329;BME280;40710;51.120;13.136;2023-02-03T08:08:46;99430.97;;;9.24;69.08
54329;BME280;40710;51.120;13.136;2023-02-03T08:11:11;99414.94;;;9.31;69.18
54329;BME280;40710;51.120;13.136;2023-02-03T08:13:36;99426.72;;;9.95;68.20
54329;BME280;40710;51.120;13.136;2023-02-03T08:16:00;99441.38;;;9.45;70.49
54329;BME280;40710;51.120;13.136;2023-02-03T08:18:25;99426.78;;;9.20;70.86
54329;BME280;40710;51.120;13.136;2023-02-03T08:20:50;99434.00;;;8.96;71.37
54329;BME280;40710;51.120;13.136;2023-02-03T08:23:15;99425.16;;;9.73;69.51
54329;BME280;40710;51.120;13.136;2023-02-03T08:25:40;99438.41;;;8.56;71.67
54329;BME280;40710;51.120;13.136;2023-02-03T08:28:04;99429.41;;;9.20;70.71
54329;BME280;40710;51.120;13.136;2023-02-03T08:30:29;99417.22;;;9.19;70.82
54329;BME280;40710;51.120;13.136;2023-02-03T08:32:53;99405.72;;;9.41;69.40
54329;BME280;40710;51.120;13.136;2023-02-03T08:35:18;99410.88;;;9.42;70.78
54329;BME280;40710;51.120;13.136;2023-02-03T08:37:42;99411.38;;;9.51;70.14
54329;BME280;40710;51.120;13.136;2023-02-03T08:40:08;99386.91;;;9.68;69.60
54329;BME280;40710;51.120;13.136;2023-02-03T08:42:34;99398.59;;;9.43;69.46
54329;BME280;40710;51.120;13.136;2023-02-03T08:44:58;99401.94;;;9.46;69.18
54329;BME280;40710;51.120;13.136;2023-02-03T08:47:23;99381.69;;;9.85;68.55
54329;BME280;40710;51.120;13.136;2023-02-03T08:49:47;99385.25;;;10.01;67.19
54329;BME280;40710;51.120;13.136;2023-02-03T08:52:13;99390.03;;;9.93;68.31
54329;BME280;40710;51.120;13.136;2023-02-03T08:54:38;99374.44;;;9.73;68.11
54329;BME280;40710;51.120;13.136;2023-02-03T08:57:03;99372.69;;;10.92;64.79
54329;BME280;40710;51.120;13.136;2023-02-03T08:59:27;99370.56;;;10.15;65.54
54329;BME280;40710;51.120;13.136;2023-02-03T09:01:53;99358.03;;;9.50;66.75
54329;BME280;40710;51.120;13.136;2023-02-03T09:04:18;99350.66;;;9.93;65.40
54329;BME280;40710;51.120;13.136;2023-02-03T09:06:47;99346.63;;;10.38;65.35
54329;BME280;40710;51.120;13.136;2023-02-03T09:09:13;99324.84;;;10.86;62.88
54329;BME280;40710;51.120;13.136;2023-02-03T09:11:39;99327.91;;;10.27;64.82
54329;BME280;40710;51.120;13.136;2023-02-03T09:14:04;99328.72;;;10.12;64.06
54329;BME280;40710;51.120;13.136;2023-02-03T09:16:29;99345.19;;;9.80;65.56
54329;BME280;40710;51.120;13.136;2023-02-03T09:18:54;99309.72;;;10.57;63.66
54329;BME280;40710;51.120;13.136;2023-02-03T09:21:18;99297.34;;;11.07;62.43
54329;BME280;40710;51.120;13.136;2023-02-03T09:23:44;99289.22;;;10.64;62.85
54329;BME280;40710;51.120;13.136;2023-02-03T09:26:11;99304.72;;;10.02;63.86
54329;BME280;40710;51.120;13.136;2023-02-03T09:28:36;99282.41;;;10.92;62.07
54329;BME280;40710;51.120;13.136;2023-02-03T09:31:05;99291.09;;;10.94;60.86
54329;BME280;40710;51.120;13.136;2023-02-03T09:33:29;99284.09;;;10.45;62.91
54329;BME280;40710;51.120;13.136;2023-02-03T09:35:55;99270.28;;;11.05;60.69
54329;BME280;40710;51.120;13.136;2023-02-03T09:38:21;99256.59;;;11.14;61.08
54329;BME280;40710;51.120;13.136;2023-02-03T09:46:20;99240.31;;;11.08;61.20
54329;BME280;40710;51.120;13.136;2023-02-03T09:48:52;99232.31;;;10.47;62.04
54329;BME280;40710;51.120;13.136;2023-02-03T09:51:23;99276.88;;;10.33;63.15
54329;BME280;40710;51.120;13.136;2023-02-03T09:53:57;99247.56;;;10.56;62.36
54329;BME280;40710;51.120;13.136;2023-02-03T09:56:29;99228.75;;;10.48;61.77
54329;BME280;40710;51.120;13.136;2023-02-03T09:58:55;99248.59;;;10.54;62.60
54329;BME280;40710;51.120;13.136;2023-02-03T10:01:24;99250.56;;;10.66;62.65
54329;BME280;40710;51.120;13.136;2023-02-03T10:04:17;99231.28;;;10.50;63.16
54329;BME280;40710;51.120;13.136;2023-02-03T10:06:48;99208.22;;;11.03;61.97
54329;BME280;40710;51.120;13.136;2023-02-03T10:09:32;99206.53;;;10.86;61.57
54329;BME280;40710;51.120;13.136;2023-02-03T10:12:14;99188.13;;;10.86;61.80
54329;BME280;40710;51.120;13.136;2023-02-03T10:14:58;99199.41;;;10.88;60.57
54329;BME280;40710;51.120;13.136;2023-02-03T10:17:40;99193.34;;;11.32;60.60
54329;BME280;40710;51.120;13.136;2023-02-03T10:20:25;99198.72;;;10.84;62.04
54329;BME280;40710;51.120;13.136;2023-02-03T10:22:59;99155.81;;;11.14;60.45
54329;BME280;40710;51.120;13.136;2023-02-03T10:25:44;99165.94;;;10.75;61.54
54329;BME280;40710;51.120;13.136;2023-02-03T10:28:17;99174.28;;;10.52;62.02
54329;BME280;40710;51.120;13.136;2023-02-03T10:30:48;99152.50;;;10.96;60.94
54329;BME280;40710;51.120;13.136;2023-02-03T10:33:16;99160.81;;;11.19;60.63
54329;BME280;40710;51.120;13.136;2023-02-03T10:36:02;99147.13;;;11.42;60.06
54329;BME280;40710;51.120;13.136;2023-02-03T10:38:51;99125.50;;;11.23;60.42
54329;BME280;40710;51.120;13.136;2023-02-03T10:41:23;99135.28;;;11.49;59.77
54329;BME280;40710;51.120;13.136;2023-02-03T10:43:49;99146.94;;;11.31;59.68
54329;BME280;40710;51.120;13.136;2023-02-03T10:46:37;99154.75;;;11.47;59.18
54329;BME280;40710;51.120;13.136;2023-02-03T10:49:00;99144.69;;;12.11;58.26
54329;BME280;40710;51.120;13.136;2023-02-03T10:51:37;99147.22;;;10.96;61.12
54329;BME280;40710;51.120;13.136;2023-02-03T10:54:03;99160.31;;;10.82;60.44
54329;BME280;40710;51.120;13.136;2023-02-03T10:56:39;99142.94;;;11.09;60.92
54329;BME280;40710;51.120;13.136;2023-02-03T10:59:04;99157.13;;;10.76;62.05
54329;BME280;40710;51.120;13.136;2023-02-03T11:01:42;99150.16;;;11.50;60.38
54329;BME280;40710;51.120;13.136;2023-02-03T11:04:24;99158.09;;;10.90;62.38
54329;BME280;40710;51.120;13.136;2023-02-03T11:06:57;99159.63;;;10.78;63.16
54329;BME280;40710;51.120;13.136;2023-02-03T11:09:39;99159.97;;;11.32;61.97
54329;BME280;40710;51.120;13.136;2023-02-03T11:12:11;99149.00;;;10.49;63.75
54329;BME280;40710;51.120;13.136;2023-02-03T11:14:51;99155.34;;;10.61;63.81
54329;BME280;40710;51.120;13.136;2023-02-03T11:17:20;99145.34;;;10.98;63.69
54329;BME280;40710;51.120;13.136;2023-02-03T11:20:03;99143.69;;;11.11;63.89
54329;BME280;40710;51.120;13.136;2023-02-03T11:22:37;99161.25;;;10.81;64.40
54329;BME280;40710;51.120;13.136;2023-02-03T11:25:19;99161.59;;;11.49;64.98
54329;BME280;40710;51.120;13.136;2023-02-03T11:27:44;99157.63;;;11.28;66.49
54329;BME280;40710;51.120;13.136;2023-02-03T11:30:23;99154.38;;;10.94;66.93
54329;BME280;40710;51.120;13.136;2023-02-03T11:32:50;99153.00;;;11.03;65.83
54329;BME280;40710;51.120;13.136;2023-02-03T11:35:27;99120.41;;;11.20;65.87
54329;BME280;40710;51.120;13.136;2023-02-03T11:37:55;99146.16;;;11.29;65.83
54329;BME280;40710;51.120;13.136;2023-02-03T11:43:01;99131.81;;;11.34;66.20
54329;BME280;40710;51.120;13.136;2023-02-03T11:48:22;99179.56;;;11.12;67.32
54329;BME280;40710;51.120;13.136;2023-02-03T11:53:52;99150.63;;;10.98;67.88
54329;BME280;40710;51.120;13.136;2023-02-03T11:59:30;99154.25;;;10.65;68.65
54329;BME280;40710;51.120;13.136;2023-02-03T12:07:39;99107.19;;;10.76;70.39
54329;BME280;40710;51.120;13.136;2023-02-03T12:13:18;99073.53;;;10.67;69.28
54329;BME280;40710;51.120;13.136;2023-02-03T12:16:10;99046.56;;;10.94;69.04
54329;BME280;40710;51.120;13.136;2023-02-03T12:19:08;99048.47;;;10.62;69.97
54329;BME280;40710;51.120;13.136;2023-02-03T12:21:59;99055.63;;;11.33;68.40
54329;BME280;40710;51.120;13.136;2023-02-03T12:24:43;99064.88;;;10.35;70.77
54329;BME280;40710;51.120;13.136;2023-02-03T12:27:15;99074.50;;;10.81;68.79
54329;BME280;40710;51.120;13.136;2023-02-03T12:29:51;99085.69;;;11.43;67.80
54329;BME280;40710;51.120;13.136;2023-02-03T12:34:58;99089.31;;;11.12;68.14
54329;BME280;40710;51.120;13.136;2023-02-03T12:37:32;99101.97;;;10.45;69.22
54329;BME280;40710;51.120;13.136;2023-02-03T12:40:05;99093.25;;;11.05;69.02
54329;BME280;40710;51.120;13.136;2023-02-03T12:42:44;99101.50;;;11.13;67.73
54329;BME280;40710;51.120;13.136;2023-02-03T12:45:20;99093.00;;;10.79;69.21
54329;BME280;40710;51.120;13.136;2023-02-03T12:47:54;99098.97;;;10.67;69.70
54329;BME280;40710;51.120;13.136;2023-02-03T12:50:34;99089.25;;;11.57;66.09
54329;BME280;40710;51.120;13.136;2023-02-03T12:53:35;99076.00;;;11.29;67.30
54329;BME280;40710;51.120;13.136;2023-02-03T12:56:13;99079.16;;;10.61;68.15
54329;BME280;40710;51.120;13.136;2023-02-03T12:59:03;99100.00;;;11.09;67.16
54329;BME280;40710;51.120;13.136;2023-02-03T13:01:42;99077.59;;;11.32;67.40
54329;BME280;40710;51.120;13.136;2023-02-03T13:04:35;99092.63;;;11.59;66.07
54329;BME280;40710;51.120;13.136;2023-02-03T13:07:20;99105.22;;;11.25;66.96
54329;BME280;40710;51.120;13.136;2023-02-03T13:10:03;99115.31;;;11.02;68.78
54329;BME280;40710;51.120;13.136;2023-02-03T13:12:40;99109.41;;;11.13;67.72
54329;BME280;40710;51.120;13.136;2023-02-03T13:15:25;99138.75;;;11.21;67.97
54329;BME280;40710;51.120;13.136;2023-02-03T13:20:31;99180.50;;;11.11;68.62
54329;BME280;40710;51.120;13.136;2023-02-03T13:22:59;99165.84;;;10.77;68.59
54329;BME280;40710;51.120;13.136;2023-02-03T13:25:41;99178.25;;;10.43;68.84
54329;BME280;40710;51.120;13.136;2023-02-03T13:28:28;99158.84;;;10.92;66.89
54329;BME280;40710;51.120;13.136;2023-02-03T13:36:19;99164.19;;;11.06;64.30
54329;BME280;40710;51.120;13.136;2023-02-03T13:42:25;99170.38;;;10.59;65.72
54329;BME280;40710;51.120;13.136;2023-02-03T13:47:45;99174.91;;;10.23;64.13
54329;BME280;40710;51.120;13.136;2023-02-03T13:50:22;99173.59;;;10.64;62.99
54329;BME280;40710;51.120;13.136;2023-02-03T13:52:59;99177.47;;;10.73;62.76
54329;BME280;40710;51.120;13.136;2023-02-03T13:55:38;99166.38;;;10.68;61.00
54329;BME280;40710;51.120;13.136;2023-02-03T13:58:05;99177.78;;;10.83;59.83
54329;BME280;40710;51.120;13.136;2023-02-03T14:06:01;99178.03;;;10.78;56.93